Metar z pełnej godziny Komunikat METAR ze strony awiacja.imgw.pl Metar G00 EPKT METAR EPKT 220600Z 24012KT 6000 NSC M03/M05 Q1028 =